SBPASBPK

Guest
Details From SBPA - Salgado Filho
To SBPK - Pelotas
Flight Number -
Tags generated
Created
Modified
Stats Distance 120 nm / 221 km
Max Altitude 9,200 ft / 2,804 m
Waypoints 3
Social Downloads 3
Likes 0
Share VATSIM

Download

Looking for another format? Having issues loading an existing format? Contact us
Advertisement - Login to hide

Notes

Basic altitude profile: - Ascent Rate: 500ft/min - Ascent Speed: 110kts - Cruise Altitude: 10000ft - Cruise Speed: 130kts - Descent Rate: 500ft/min - Descent Speed: 160kts

Route

SBPA GENUS SBPK

ID Type Via Altitude Latitude Longitude Leg Dist Tot Dist Heading (true) Name
O SBPA APT - 0 ft / 0 m -29.99443˚ -51.17143˚ - 0 nm - Salgado Filho
GENUS FIX - 9,200 ft / 2,804 m -30.57467˚ -51.55033˚ 40 nm 40 nm 209° / 210° -
O SBPK APT - 0 ft / 0 m -31.72043˚ -52.32733˚ 79 nm 119 nm 210° / 210° Pelotas

Altitude Profile

Advertisement - Login to hide

SBPA

Details ICAO SBPA (POA)
Name Salgado Filho
Region Brazil
Timezone America/Sao_Paulo (UTC-2.0)
Stats Elevation 11 ft / 3 m (AMSL)
Location -29.994428° -51.171426°
Runways 1
Magnetic Variation 16.879° W

METAR

SBPA 151000Z VRB02KT CAVOK 23/19 Q1013

Decode

TAF

Not found

Departure Runways

ID Width Length Bearing (true) Bearing (mag) Surface Threshold Offset Overrun Length
11 138 ft / 42 m 7,487 ft / 2,282 m 91.60° 108.48° Asphalt 0 ft / 0 m 230 ft / 70 m
29 138 ft / 42 m 7,487 ft / 2,282 m 271.59° 288.47° Asphalt 0 ft / 0 m 197 ft / 60 m

SBPK

Details ICAO SBPK (PET)
Name Pelotas
Region Brazil
Timezone America/Sao_Paulo (UTC-2.0)
Stats Elevation 59 ft / 18 m (AMSL)
Location -31.720428° -52.327334°
Runways 2
Magnetic Variation 15.315° W

METAR

SBPK 151000Z 35005KT CAVOK 22/19 Q1013

Decode

TAF

Not found

Destination Runways

ID Width Length Bearing (true) Bearing (mag) Surface Threshold Offset Overrun Length
06 138 ft / 42 m 6,501 ft / 1,982 m 51.16° 66.48° Concrete 0 ft / 0 m 0 ft / 0 m
15 138 ft / 42 m 4,050 ft / 1,234 m 142.34° 157.66° Grass 0 ft / 0 m 0 ft / 0 m
24 138 ft / 42 m 6,501 ft / 1,982 m 231.15° 246.47° Concrete 0 ft / 0 m 0 ft / 0 m
33 138 ft / 42 m 4,050 ft / 1,234 m 322.34° 337.66° Grass 0 ft / 0 m 0 ft / 0 m

Popular Alternatives